createdAt,value
2018-02-04T00:01:24.935Z,85.70
2018-02-04T00:03:52.425Z,85.70
2018-02-04T00:06:19.972Z,85.60
2018-02-04T00:08:47.494Z,85.80
2018-02-04T00:11:15.753Z,85.60
2018-02-04T00:13:44.012Z,85.70
2018-02-04T00:16:11.534Z,85.70
2018-02-04T00:18:39.034Z,85.70
2018-02-04T00:21:06.543Z,85.50
2018-02-04T00:23:34.079Z,85.70
2018-02-04T00:26:02.354Z,85.90
2018-02-04T00:28:30.609Z,85.90
2018-02-04T00:30:58.149Z,85.90
2018-02-04T00:33:25.644Z,85.80
2018-02-04T00:35:53.901Z,85.70
2018-02-04T00:38:21.417Z,85.70
2018-02-04T00:40:48.918Z,85.90
2018-02-04T00:43:16.404Z,85.90
2018-02-04T00:45:44.702Z,85.40
2018-02-04T00:48:12.206Z,85.50
2018-02-04T00:50:39.715Z,85.40
2018-02-04T00:53:07.237Z,85.30
2018-02-04T00:55:35.516Z,84.90
2018-02-04T00:58:03.792Z,84.80
2018-02-04T01:00:32.077Z,84.90
2018-02-04T01:03:00.352Z,85.10
2018-02-04T01:05:28.680Z,85.20
2018-02-04T01:07:56.188Z,85.20
2018-02-04T01:10:24.450Z,84.80
2018-02-04T01:12:52.718Z,84.60
2018-02-04T01:15:20.236Z,84.60
2018-02-04T01:17:47.733Z,84.60
2018-02-04T01:20:15.230Z,84.50
2018-02-04T01:22:42.740Z,84.50
2018-02-04T01:25:10.238Z,84.40
2018-02-04T01:27:37.728Z,84.30
2018-02-04T01:30:05.241Z,84.40
2018-02-04T01:32:33.505Z,85.20
2018-02-04T01:35:01.774Z,85.80
2018-02-04T01:37:29.297Z,85.50
2018-02-04T01:39:56.812Z,85.30
2018-02-04T01:42:25.081Z,84.80
2018-02-04T01:44:53.365Z,84.60
2018-02-04T01:47:21.631Z,84.50
2018-02-04T01:49:49.898Z,84.70
2018-02-04T01:52:17.418Z,84.70
2018-02-04T01:54:44.912Z,84.70
2018-02-04T01:57:12.397Z,85.30
2018-02-04T01:59:40.667Z,85.60
2018-02-04T02:02:08.925Z,85.80
2018-02-04T02:04:36.416Z,85.80
2018-02-04T02:07:03.943Z,85.90
2018-02-04T02:09:31.468Z,86.00
2018-02-04T02:11:58.978Z,86.30
2018-02-04T02:14:27.264Z,86.40
2018-02-04T02:16:55.529Z,86.00
2018-02-04T02:19:23.794Z,85.80
2018-02-04T02:21:51.318Z,85.80
2018-02-04T02:24:18.815Z,85.60
2018-02-04T02:26:47.095Z,85.60
2018-02-04T02:29:15.392Z,85.60
2018-02-04T02:31:42.894Z,85.60
2018-02-04T02:34:10.390Z,85.80
2018-02-04T02:36:38.682Z,86.30
2018-02-04T02:39:06.186Z,86.30
2018-02-04T02:41:33.698Z,86.40
2018-02-04T02:44:01.230Z,86.20
2018-02-04T02:46:28.720Z,86.00
2018-02-04T02:48:56.240Z,86.00
2018-02-04T02:51:23.770Z,86.20
2018-02-04T02:53:51.278Z,86.30
2018-02-04T02:56:19.558Z,86.10
2018-02-04T02:58:47.852Z,86.00
2018-02-04T03:01:15.372Z,86.00
2018-02-04T03:03:42.886Z,85.90
2018-02-04T03:06:10.440Z,86.10
2018-02-04T03:08:37.950Z,86.40
2018-02-04T03:11:05.471Z,86.30
2018-02-04T03:13:33.006Z,85.80
2018-02-04T03:16:00.514Z,86.30
2018-02-04T03:18:28.009Z,86.20
2018-02-04T03:20:55.538Z,86.10
2018-02-04T03:23:23.038Z,86.10
2018-02-04T03:25:50.560Z,86.10
2018-02-04T03:28:18.081Z,86.40
2018-02-04T03:30:45.582Z,85.90
2018-02-04T03:33:13.862Z,86.30
2018-02-04T03:35:42.168Z,86.40
2018-02-04T03:38:09.673Z,86.40
2018-02-04T03:40:37.192Z,86.40
2018-02-04T03:43:04.721Z,86.30
2018-02-04T03:45:32.993Z,86.60
2018-02-04T03:48:01.266Z,86.60
2018-02-04T03:50:29.570Z,86.70
2018-02-04T03:52:57.086Z,86.70
2018-02-04T03:55:24.605Z,86.80
2018-02-04T03:57:52.152Z,86.90
2018-02-04T04:00:19.663Z,87.00
2018-02-04T04:02:47.164Z,87.10
2018-02-04T04:05:14.699Z,87.10
2018-02-04T04:07:42.984Z,86.90
2018-02-04T04:10:11.268Z,86.80
2018-02-04T04:12:38.798Z,86.80
2018-02-04T04:15:06.305Z,87.00
2018-02-04T04:17:33.804Z,86.80
2018-02-04T04:20:01.338Z,86.60
2018-02-04T04:22:28.846Z,86.60
2018-02-04T04:24:57.108Z,86.80
2018-02-04T04:27:24.643Z,86.80
2018-02-04T04:29:52.145Z,86.60
2018-02-04T04:32:20.422Z,86.50
2018-02-04T04:34:48.728Z,86.30
2018-02-04T04:37:16.243Z,86.30
2018-02-04T04:39:44.514Z,86.30
2018-02-04T04:42:12.809Z,86.20
2018-02-04T04:44:41.086Z,86.10
2018-02-04T04:47:09.346Z,86.00
2018-02-04T04:49:36.872Z,86.00
2018-02-04T04:52:04.391Z,86.50
2018-02-04T04:54:31.915Z,85.90
2018-02-04T04:57:00.217Z,85.90
2018-02-04T04:59:28.494Z,86.00
2018-02-04T05:01:56.762Z,86.00
2018-02-04T05:04:25.043Z,86.00
2018-02-04T05:06:53.327Z,85.80
2018-02-04T05:09:20.832Z,85.80
2018-02-04T05:11:48.358Z,85.90
2018-02-04T05:14:15.871Z,85.80
2018-02-04T05:16:43.379Z,86.00
2018-02-04T05:19:10.901Z,86.00
2018-02-04T05:21:39.174Z,85.60
2018-02-04T05:24:07.446Z,85.90
2018-02-04T05:26:34.977Z,86.00
2018-02-04T05:29:02.472Z,86.20
2018-02-04T05:31:30.737Z,85.80
2018-02-04T05:33:58.279Z,85.70
2018-02-04T05:36:25.820Z,85.30
2018-02-04T05:38:53.293Z,86.00
2018-02-04T05:41:20.828Z,86.00
2018-02-04T05:43:48.329Z,86.20
2018-02-04T05:46:15.835Z,86.40
2018-02-04T05:48:43.365Z,86.30
2018-02-04T05:51:11.645Z,86.40
2018-02-04T05:53:39.933Z,85.80
2018-02-04T05:56:07.447Z,85.90
2018-02-04T05:58:34.945Z,85.90
2018-02-04T06:01:02.454Z,86.10
2018-02-04T06:03:29.995Z,86.20
2018-02-04T06:05:57.502Z,86.20
2018-02-04T06:08:25.790Z,85.90
2018-02-04T06:10:54.085Z,85.90
2018-02-04T06:13:21.583Z,85.90
2018-02-04T06:15:49.091Z,86.10
2018-02-04T06:18:16.631Z,86.10
2018-02-04T06:20:44.914Z,86.20
2018-02-04T06:23:13.690Z,85.80
2018-02-04T06:25:41.980Z,85.70
2018-02-04T06:28:10.263Z,85.90
2018-02-04T06:30:37.780Z,85.90
2018-02-04T06:33:05.297Z,85.60
2018-02-04T06:35:32.812Z,85.70
2018-02-04T06:38:01.105Z,85.70
2018-02-04T06:40:29.415Z,85.90
2018-02-04T06:42:56.925Z,85.90
2018-02-04T06:45:24.425Z,85.90
2018-02-04T06:47:51.958Z,86.30
2018-02-04T06:50:20.234Z,86.00
2018-02-04T06:52:48.520Z,86.10
2018-02-04T06:55:16.050Z,86.10
2018-02-04T06:57:43.612Z,86.10
2018-02-04T07:00:11.100Z,86.20
2018-02-04T07:02:38.644Z,87.00
2018-02-04T07:05:06.921Z,86.50
2018-02-04T07:07:35.211Z,86.60
2018-02-04T07:10:02.753Z,86.60
2018-02-04T07:12:31.039Z,87.00
2018-02-04T07:14:59.314Z,87.10
2018-02-04T07:17:27.605Z,87.30
2018-02-04T07:19:55.130Z,87.30
2018-02-04T07:22:22.634Z,87.80
2018-02-04T07:24:50.159Z,87.30
2018-02-04T07:27:18.431Z,87.30
2018-02-04T07:29:46.693Z,87.00
2018-02-04T07:32:14.226Z,86.90
2018-02-04T07:34:41.740Z,87.10
2018-02-04T07:37:10.014Z,87.20
2018-02-04T07:39:38.309Z,87.30
2018-02-04T07:42:05.801Z,87.30
2018-02-04T07:44:33.304Z,87.40
2018-02-04T07:47:01.588Z,87.60
2018-02-04T07:49:29.844Z,87.70
2018-02-04T07:51:58.126Z,87.20
2018-02-04T07:54:26.404Z,86.70
2018-02-04T07:56:54.683Z,86.90
2018-02-04T07:59:22.968Z,86.70
2018-02-04T08:01:50.489Z,86.70
2018-02-04T08:04:18.004Z,87.00
2018-02-04T08:06:45.496Z,86.60
2018-02-04T08:09:13.023Z,86.20
2018-02-04T08:11:40.513Z,86.50
2018-02-04T08:14:08.012Z,86.50
2018-02-04T08:16:36.306Z,86.60
2018-02-04T08:19:03.832Z,86.40
2018-02-04T08:21:32.114Z,86.40
2018-02-04T08:24:00.444Z,86.20
2018-02-04T08:26:27.953Z,86.20
2018-02-04T08:28:56.208Z,85.20
2018-02-04T08:31:23.736Z,85.20
2018-02-04T08:33:51.252Z,85.20
2018-02-04T08:36:18.792Z,85.10
2018-02-04T08:38:46.324Z,84.60
2018-02-04T08:41:13.825Z,84.30
2018-02-04T08:43:42.104Z,83.50
2018-02-04T08:46:10.391Z,83.20
2018-02-04T08:48:37.890Z,83.20
2018-02-04T08:51:05.395Z,83.30
2018-02-04T08:53:33.690Z,83.10
2018-02-04T08:56:01.204Z,83.20
2018-02-04T08:58:28.706Z,82.50
2018-02-04T09:00:56.229Z,81.10
2018-02-04T09:03:23.737Z,81.10
2018-02-04T09:05:51.238Z,81.70
2018-02-04T09:08:18.751Z,80.50
2018-02-04T09:10:46.249Z,80.40
2018-02-04T09:13:13.769Z,81.30
2018-02-04T09:15:41.297Z,81.00
2018-02-04T09:18:09.575Z,81.30
2018-02-04T09:20:37.829Z,80.80
2018-02-04T09:23:05.355Z,80.80
2018-02-04T09:25:32.862Z,80.80
2018-02-04T09:28:01.141Z,80.70
2018-02-04T09:30:29.438Z,81.40
2018-02-04T09:32:56.957Z,81.40
2018-02-04T09:35:24.458Z,81.10
2018-02-04T09:37:51.982Z,81.30
2018-02-04T09:40:20.249Z,81.00
2018-02-04T09:42:47.866Z,81.00
2018-02-04T09:45:15.397Z,80.20
2018-02-04T09:47:43.673Z,80.70
2018-02-04T09:50:11.187Z,80.70
2018-02-04T09:52:38.724Z,80.80
2018-02-04T09:55:06.213Z,80.40
2018-02-04T09:57:35.231Z,81.10
2018-02-04T10:00:03.535Z,80.40
2018-02-04T10:02:31.046Z,80.40
2018-02-04T10:04:58.559Z,80.50
2018-02-04T10:07:26.091Z,80.50
2018-02-04T10:09:54.357Z,79.80
2018-02-04T10:12:22.618Z,80.80
2018-02-04T10:14:50.146Z,80.80
2018-02-04T10:17:17.635Z,81.00
2018-02-04T10:19:45.129Z,80.80
2018-02-04T10:22:12.654Z,79.80
2018-02-04T10:24:40.148Z,79.50
2018-02-04T10:27:07.947Z,78.80
2018-02-04T10:29:35.475Z,79.10
2018-02-04T10:32:02.996Z,78.10
2018-02-04T10:34:31.284Z,78.50
2018-02-04T10:36:59.578Z,78.00
2018-02-04T10:39:27.133Z,78.00
2018-02-04T10:41:54.604Z,77.70
2018-02-04T10:44:22.244Z,77.90
2018-02-04T10:46:50.510Z,77.10
2018-02-04T10:49:18.764Z,76.90
2018-02-04T10:51:51.984Z,76.80
2018-02-04T10:54:20.291Z,75.70
2018-02-04T10:56:47.786Z,75.70
2018-02-04T10:59:15.847Z,77.20
2018-02-04T11:01:43.360Z,76.40
2018-02-04T11:04:10.877Z,76.90
2018-02-04T11:06:38.395Z,78.00
2018-02-04T11:09:05.904Z,79.10
2018-02-04T11:11:33.413Z,77.70
2018-02-04T11:14:00.942Z,78.00
2018-02-04T11:16:29.224Z,76.90
2018-02-04T11:18:57.508Z,77.50
2018-02-04T11:21:25.044Z,77.50
2018-02-04T11:23:53.309Z,77.40
2018-02-04T11:26:22.581Z,77.40
2018-02-04T11:28:50.118Z,76.80
2018-02-04T11:31:19.570Z,77.40
2018-02-04T11:33:47.080Z,77.80
2018-02-04T11:36:14.615Z,75.90
2018-02-04T11:38:42.886Z,75.80
2018-02-04T11:41:11.912Z,76.70
2018-02-04T11:43:39.441Z,76.70
2018-02-04T11:46:07.706Z,75.50
2018-02-04T11:48:35.974Z,74.90
2018-02-04T11:51:03.497Z,74.90
2018-02-04T11:53:30.984Z,74.30
2018-02-04T11:55:58.483Z,73.50
2018-02-04T11:58:25.997Z,72.90
2018-02-04T12:00:53.488Z,73.50
2018-02-04T12:03:21.763Z,74.20
2018-02-04T12:05:50.048Z,74.00
2018-02-04T12:08:17.542Z,74.00
2018-02-04T12:10:45.042Z,78.40
2018-02-04T12:13:13.324Z,76.10
2018-02-04T12:15:41.584Z,72.20
2018-02-04T12:18:09.100Z,72.10
2018-02-04T12:20:36.641Z,71.10
2018-02-04T12:23:04.146Z,72.70
2018-02-04T12:25:31.656Z,71.30
2018-02-04T12:27:59.191Z,68.50
2018-02-04T12:30:27.463Z,67.00
2018-02-04T12:32:55.720Z,67.10
2018-02-04T12:35:23.249Z,67.10
2018-02-04T12:37:50.737Z,67.20
2018-02-04T12:40:18.248Z,63.10
2018-02-04T12:42:46.777Z,61.50
2018-02-04T12:45:14.260Z,61.70
2018-02-04T12:47:42.522Z,61.70
2018-02-04T12:50:10.046Z,61.60
2018-02-04T12:52:37.690Z,62.00
2018-02-04T12:55:05.186Z,62.80
2018-02-04T12:57:32.710Z,62.80
2018-02-04T13:00:00.205Z,62.00
2018-02-04T13:02:27.705Z,62.40
2018-02-04T13:04:55.220Z,64.30
2018-02-04T13:07:22.712Z,65.10
2018-02-04T13:09:50.955Z,65.70
2018-02-04T13:12:19.258Z,66.90
2018-02-04T13:14:47.517Z,67.70
2018-02-04T13:17:15.005Z,67.70
2018-02-04T13:19:43.305Z,69.10
2018-02-04T13:22:10.791Z,69.10
2018-02-04T13:24:38.290Z,69.20
2018-02-04T13:27:06.573Z,69.90
2018-02-04T13:29:34.824Z,69.50
2018-02-04T13:32:02.313Z,69.50
2018-02-04T13:34:29.834Z,70.10
2018-02-04T13:36:57.334Z,70.90
2018-02-04T13:39:24.847Z,70.70
2018-02-04T13:41:52.373Z,71.20
2018-02-04T13:44:19.871Z,71.40
2018-02-04T13:46:47.376Z,72.20
2018-02-04T13:49:14.902Z,72.90
2018-02-04T13:51:43.157Z,71.30
2018-02-04T13:54:10.650Z,71.30
2018-02-04T13:56:38.178Z,71.00
2018-02-04T13:59:05.669Z,70.00
2018-02-04T14:01:33.166Z,69.70
2018-02-04T14:04:00.701Z,69.20
2018-02-04T14:06:28.203Z,69.50
2018-02-04T14:08:55.698Z,68.10
2018-02-04T14:11:23.984Z,68.70
2018-02-04T14:13:51.481Z,68.70
2018-02-04T14:16:18.980Z,68.70
2018-02-04T14:18:47.256Z,70.50
2018-02-04T14:21:15.522Z,69.90
2018-02-04T14:23:43.028Z,69.90
2018-02-04T14:26:10.549Z,69.90
2018-02-04T14:28:38.832Z,71.60
2018-02-04T14:31:07.101Z,71.30
2018-02-04T14:33:35.389Z,71.40
2018-02-04T14:36:02.901Z,71.40
2018-02-04T14:38:30.401Z,71.90
2018-02-04T14:40:58.690Z,70.90
2018-02-04T14:43:26.207Z,70.90
2018-02-04T14:45:53.711Z,71.00
2018-02-04T14:48:21.224Z,69.30
2018-02-04T14:50:48.742Z,69.70
2018-02-04T14:53:16.308Z,67.80
2018-02-04T14:55:43.830Z,69.10
2018-02-04T14:58:11.351Z,69.00
2018-02-04T15:00:38.850Z,68.20
2018-02-04T15:03:07.135Z,68.00
2018-02-04T15:05:34.639Z,67.90
2018-02-04T15:08:02.152Z,67.30
2018-02-04T15:10:29.698Z,67.80
2018-02-04T15:12:57.965Z,69.80
2018-02-04T15:15:26.249Z,69.60
2018-02-04T15:17:54.534Z,70.40
2018-02-04T15:20:22.047Z,70.40
2018-02-04T15:22:49.546Z,70.50
2018-02-04T15:25:17.845Z,72.00
2018-02-04T15:27:45.350Z,71.90
2018-02-04T15:30:12.850Z,70.90
2018-02-04T15:32:40.383Z,71.40
2018-02-04T15:35:08.663Z,72.10
2018-02-04T15:37:36.929Z,72.20
2018-02-04T15:40:04.459Z,72.20
2018-02-04T15:42:31.973Z,72.20
2018-02-04T15:44:59.932Z,72.70
2018-02-04T15:47:28.234Z,72.80
2018-02-04T15:49:55.740Z,72.80
2018-02-04T15:52:23.224Z,73.00
2018-02-04T15:54:51.500Z,73.30
2018-02-04T15:57:19.763Z,73.60
2018-02-04T15:59:47.252Z,73.60
2018-02-04T16:02:14.797Z,73.90
2018-02-04T16:04:43.061Z,74.60
2018-02-04T16:07:11.316Z,74.60
2018-02-04T16:09:38.848Z,74.60
2018-02-04T16:12:06.346Z,75.00
2018-02-04T16:14:33.846Z,75.30
2018-02-04T16:17:01.383Z,76.00
2018-02-04T16:19:29.654Z,75.80
2018-02-04T16:21:57.926Z,76.00
2018-02-04T16:24:26.238Z,76.30
2018-02-04T16:26:53.772Z,76.20
2018-02-04T16:29:22.027Z,76.30
2018-02-04T16:31:49.546Z,76.30
2018-02-04T16:34:17.041Z,76.30
2018-02-04T16:36:44.538Z,76.70
2018-02-04T16:39:12.057Z,77.30
2018-02-04T16:41:39.558Z,77.40
2018-02-04T16:44:07.058Z,77.60
2018-02-04T16:46:34.563Z,77.90
2018-02-04T16:49:02.057Z,78.20
2018-02-04T16:51:29.566Z,78.40
2018-02-04T16:53:57.856Z,79.20
2018-02-04T16:56:32.454Z,79.10
2018-02-04T16:59:00.746Z,79.40
2018-02-04T17:01:28.568Z,79.50
2018-02-04T17:03:56.201Z,79.60
2018-02-04T17:06:24.745Z,79.90
2018-02-04T17:08:53.006Z,79.70
2018-02-04T17:11:20.506Z,79.70
2018-02-04T17:13:48.029Z,79.80
2018-02-04T17:16:15.526Z,80.00
2018-02-04T17:18:43.012Z,80.00
2018-02-04T17:21:10.537Z,80.00
2018-02-04T17:23:38.100Z,80.10
2018-02-04T17:26:05.568Z,80.10
2018-02-04T17:28:33.076Z,80.40
2018-02-04T17:31:00.592Z,80.40
2018-02-04T17:33:28.095Z,80.50
2018-02-04T17:35:55.627Z,80.50
2018-02-04T17:38:23.120Z,81.60
2018-02-04T17:40:51.379Z,81.00
2018-02-04T17:43:19.034Z,80.90
2018-02-04T17:45:46.528Z,81.20
2018-02-04T17:48:14.793Z,81.70
2018-02-04T17:50:43.095Z,81.70
2018-02-04T17:53:10.606Z,81.70
2018-02-04T17:55:38.120Z,82.00
2018-02-04T17:58:05.664Z,82.30
2018-02-04T18:00:33.156Z,82.20
2018-02-04T18:03:00.658Z,82.20
2018-02-04T18:05:28.966Z,82.50
2018-02-04T18:07:56.487Z,82.50
2018-02-04T18:10:23.980Z,82.40
2018-02-04T18:12:51.511Z,82.30
2018-02-04T18:15:19.788Z,82.30
2018-02-04T18:17:48.076Z,82.80
2018-02-04T18:20:16.360Z,82.60
2018-02-04T18:22:43.856Z,82.60
2018-02-04T18:25:11.357Z,82.50
2018-02-04T18:27:39.664Z,83.80
2018-02-04T18:30:07.181Z,83.20
2018-02-04T18:32:34.699Z,83.30
2018-02-04T18:35:02.229Z,83.30
2018-02-04T18:37:29.752Z,83.30
2018-02-04T18:39:57.249Z,83.60
2018-02-04T18:42:24.783Z,83.80
2018-02-04T18:44:53.066Z,84.10
2018-02-04T18:47:21.349Z,84.00
2018-02-04T18:49:49.662Z,83.80
2018-02-04T18:52:17.168Z,83.80
2018-02-04T18:54:45.432Z,83.30
2018-02-04T18:57:12.983Z,83.30
2018-02-04T18:59:40.494Z,84.00
2018-02-04T19:02:08.010Z,83.80
2018-02-04T19:04:35.542Z,83.70
2018-02-04T19:07:03.053Z,83.40
2018-02-04T19:09:31.335Z,83.30
2018-02-04T19:11:59.625Z,83.50
2018-02-04T19:14:27.125Z,83.50
2018-02-04T19:16:54.628Z,83.60
2018-02-04T19:19:22.927Z,83.30
2018-02-04T19:21:50.438Z,83.30
2018-02-04T19:24:17.932Z,83.20
2018-02-04T19:26:45.453Z,83.20
2018-02-04T19:29:12.961Z,83.10
2018-02-04T19:31:40.488Z,83.00
2018-02-04T19:34:08.779Z,83.70
2018-02-04T19:36:36.306Z,83.60
2018-02-04T19:39:03.818Z,83.50
2018-02-04T19:41:31.349Z,83.60
2018-02-04T19:43:59.622Z,83.80
2018-02-04T19:46:27.898Z,84.10
2018-02-04T19:48:56.203Z,84.40
2018-02-04T19:51:23.704Z,84.40
2018-02-04T19:53:51.205Z,84.30
2018-02-04T19:56:18.752Z,83.90
2018-02-04T19:58:46.274Z,83.90
2018-02-04T20:01:13.791Z,83.80
2018-02-04T20:03:41.322Z,84.40
2018-02-04T20:06:09.620Z,83.90
2018-02-04T20:08:37.133Z,83.90
2018-02-04T20:11:04.670Z,84.30
2018-02-04T20:13:32.178Z,84.50
2018-02-04T20:16:00.449Z,84.10
2018-02-04T20:18:28.793Z,84.10
2018-02-04T20:20:56.299Z,84.10
2018-02-04T20:23:23.824Z,84.10
2018-02-04T20:25:51.371Z,84.20
2018-02-04T20:28:18.882Z,84.00
2018-02-04T20:30:46.390Z,84.30
2018-02-04T20:33:21.886Z,84.00
2018-02-04T20:35:49.389Z,83.70
2018-02-04T20:38:16.938Z,83.70
2018-02-04T20:40:44.468Z,83.50
2018-02-04T20:43:11.988Z,83.60
2018-02-04T20:45:40.680Z,83.70
2018-02-04T20:48:09.114Z,84.30
2018-02-04T20:50:36.612Z,84.20
2018-02-04T20:53:04.113Z,84.20
2018-02-04T20:55:31.636Z,84.00
2018-02-04T20:58:01.375Z,83.90
2018-02-04T21:00:29.000Z,84.00
2018-02-04T21:02:57.318Z,84.00
2018-02-04T21:05:24.850Z,84.00
2018-02-04T21:07:53.118Z,84.20
2018-02-04T21:10:21.418Z,84.30
2018-02-04T21:12:48.930Z,84.20
2018-02-04T21:15:16.451Z,84.60
2018-02-04T21:17:43.991Z,84.50
2018-02-04T21:20:11.493Z,84.50
2018-02-04T21:22:39.001Z,84.20
2018-02-04T21:25:07.312Z,83.90
2018-02-04T21:27:34.822Z,83.80
2018-02-04T21:30:03.106Z,84.00
2018-02-04T21:32:31.402Z,84.10
2018-02-04T21:34:58.913Z,84.10
2018-02-04T21:37:26.427Z,83.80
2018-02-04T21:39:53.958Z,84.00
2018-02-04T21:42:22.223Z,83.40
2018-02-04T21:44:49.730Z,83.40
2018-02-04T21:47:17.262Z,83.60
2018-02-04T21:49:44.788Z,84.10
2018-02-04T21:52:12.303Z,83.90
2018-02-04T21:54:39.838Z,84.00
2018-02-04T21:57:07.357Z,83.90
2018-02-04T21:59:34.860Z,83.70
2018-02-04T22:02:02.389Z,84.00
2018-02-04T22:04:29.901Z,83.30
2018-02-04T22:06:57.410Z,83.40
2018-02-04T22:09:25.701Z,84.20
2018-02-04T22:11:53.984Z,84.10
2018-02-04T22:14:21.494Z,84.10
2018-02-04T22:16:49.033Z,83.90
2018-02-04T22:19:16.536Z,84.10
2018-02-04T22:21:44.814Z,84.40
2018-02-04T22:24:13.114Z,84.40
2018-02-04T22:26:40.636Z,84.40
2018-02-04T22:29:08.146Z,84.60
2018-02-04T22:31:35.678Z,84.60
2018-02-04T22:34:03.953Z,84.20
2018-02-04T22:36:32.230Z,83.70
2018-02-04T22:39:00.544Z,83.50
2018-02-04T22:41:28.054Z,83.50
2018-02-04T22:43:56.319Z,83.20
2018-02-04T22:46:23.850Z,83.00
2018-02-04T22:48:51.358Z,83.20
2018-02-04T22:51:19.628Z,83.20
2018-02-04T22:53:47.943Z,82.90
2018-02-04T22:56:15.463Z,82.90
2018-02-04T22:58:43.752Z,83.10
2018-02-04T23:01:12.024Z,83.90
2018-02-04T23:03:40.292Z,83.50
2018-02-04T23:06:08.566Z,84.00
2018-02-04T23:08:36.866Z,84.10
2018-02-04T23:11:04.387Z,84.10
2018-02-04T23:13:31.900Z,84.20
2018-02-04T23:15:59.429Z,84.20
2018-02-04T23:18:27.706Z,84.10
2018-02-04T23:20:55.990Z,83.70
2018-02-04T23:23:23.526Z,83.70
2018-02-04T23:25:51.824Z,83.70
2018-02-04T23:28:20.097Z,83.60
2018-02-04T23:30:48.401Z,83.30
2018-02-04T23:33:15.911Z,83.30
2018-02-04T23:35:43.431Z,83.60
2018-02-04T23:38:10.956Z,83.60
2018-02-04T23:40:38.489Z,83.40
2018-02-04T23:43:05.996Z,83.30
2018-02-04T23:45:33.526Z,83.30
2018-02-04T23:48:01.800Z,83.20
2018-02-04T23:50:30.077Z,83.00
2018-02-04T23:52:58.365Z,83.00
2018-02-04T23:55:25.874Z,83.00
2018-02-04T23:57:53.398Z,83.10
